Time;durP1;ratioP1;P1;durP2;ratioP2;P2;SDS_P1;SDS_P2;PMS_P1;PMS_P2;Temp;Humidity;BMP_temperature;BMP_pressure;BME280_temperature;BME280_humidity;BME280_pressure;Samples;Min_cycle;Max_cycle;Signal;HPM_P1;HPM_P2
2023/04/23 00:00:12;;;;;;;;;;;;;;;;;;1034291;28;2930;-48
2023/04/23 00:00:56;;;;;;;;;;;;;;;;;;1033974;28;5051;-56
2023/04/23 00:01:41;;;;;;;;;;;;;;;;;;1034664;28;4405;-51
2023/04/23 00:02:12;;;;;;;;;;;;;;;;;;1035049;28;1864;-55
2023/04/23 00:02:43;;;;;;;;;;;;;;;;;;1034607;28;4166;-48
2023/04/23 00:03:14;;;;;;;;;;;;;;;;;;1035113;28;1764;-49
2023/04/23 00:03:44;;;;;;;;;;;;;;;;;;1035145;28;4202;-51
2023/04/23 00:04:17;;;;;;;;;;;;;;;;;;1034503;28;2810;-53
2023/04/23 00:04:53;;;;;;;;;;;;;;;;;;1035070;28;4069;-55
2023/04/23 00:05:26;;;;;;;;;;;;;;;;;;1034984;28;1787;-57
2023/04/23 00:05:56;;;;;;;;;;;;;;;;;;1034475;28;3780;-56
2023/04/23 00:06:27;;;;;;;;;;;;;;;;;;1035060;28;3253;-50
2023/04/23 00:06:58;;;;;;;;;;;;;;;;;;1034896;28;4479;-52
2023/04/23 00:07:30;;;;;;;;;;;;;;;;;;1034668;28;1837;-52
2023/04/23 00:08:01;;;;;;;;;;;;;;;;;;1034842;28;4012;-52
2023/04/23 00:08:31;;;;;;;;;;;;;;;;;;1034573;28;1918;-55
2023/04/23 00:09:02;;;;;;;;;;;;;;;;;;1033177;28;3986;-50
2023/04/23 00:09:34;;;;;;;;;;;;;;;;;;1035509;28;2005;-53
2023/04/23 00:10:06;;;;;;;;;;;;;;;;;;1034249;28;3840;-53
2023/04/23 00:10:37;;;;;;;;;;;;;;;;;;1035089;28;3891;-53
2023/04/23 00:11:08;;;;;;;;;;;;;;;;;;1034368;28;2817;-52
2023/04/23 00:11:39;;;;;;;;;;;;;;;;;;1034799;28;3901;-51
2023/04/23 00:12:09;;;;;;;;;;;;;;;;;;1034571;28;2875;-57
2023/04/23 00:12:40;;;;;;;;;;;;;;;;;;1030527;28;4110;-53
2023/04/23 00:13:10;;;;;;;;;;;;;;;;;;1026437;28;1547;-51
2023/04/23 00:13:41;;;;;;;;;;;;;;;;;;1026363;28;4176;-51
2023/04/23 00:14:11;;;;;;;;;;;;;;;;;;1026537;28;1833;-49
2023/04/23 00:14:41;;;;;;;;;;;;;;;;;;1030838;28;3814;-55
2023/04/23 00:15:12;;;;;;;;;;;;;;;;;;1035035;28;1823;-51
2023/04/23 00:15:43;;;;;;;;;;;;;;;;;;1034315;28;3933;-53
2023/04/23 00:16:14;;;;;;;;;;;;;;;;;;1035170;28;1897;-51
2023/04/23 00:16:45;;;;;;;;;;;;;;;;;;1034820;28;3806;-53
2023/04/23 00:17:15;;;;;;;;;;;;;;;;;;1030761;28;1771;-53
2023/04/23 00:17:45;;;;;;;;;;;;;;;;;;1030598;28;3835;-52
2023/04/23 00:18:19;;;;;;;;;;;;;;;;;;1031026;28;1662;-51
2023/04/23 00:18:49;;;;;;;;;;;;;;;;;;1031042;28;3893;-50
2023/04/23 00:19:20;;;;;;;;;;;;;;;;;;1034613;28;1804;-51
2023/04/23 00:19:50;;;;;;;;;;;;;;;;;;1034272;28;3788;-51
2023/04/23 00:20:21;;;;;;;;;;;;;;;;;;1035271;28;3065;-54
2023/04/23 00:20:52;;;;;;;;;;;;;;;;;;1033306;28;4019;-51
2023/04/23 00:21:22;;;;;;;;;;;;;;;;;;1035563;28;1683;-52
2023/04/23 00:21:52;;;;;;;;;;;;;;;;;;1034746;28;4005;-53
2023/04/23 00:22:23;;;;;;;;;;;;;;;;;;1035238;28;1786;-52
2023/04/23 00:22:53;;;;;;;;;;;;;;;;;;1034868;28;4068;-51
2023/04/23 00:23:23;;;;;;;;;;;;;;;;;;1034733;28;2115;-50
2023/04/23 00:23:54;;;;;;;;;;;;;;;;;;1029614;28;3826;-55
2023/04/23 00:24:24;;;;;;;;;;;;;;;;;;1029691;28;3017;-50
2023/04/23 00:24:55;;;;;;;;;;;;;;;;;;1030084;28;3807;-53
2023/04/23 00:25:25;;;;;;;;;;;;;;;;;;1030797;28;1754;-52
2023/04/23 00:25:56;;;;;;;;;;;;;;;;;;1033433;28;3956;-51
2023/04/23 00:26:26;;;;;;;;;;;;;;;;;;1034232;28;3049;-52
2023/04/23 00:26:56;;;;;;;;;;;;;;;;;;1033038;28;4014;-56
2023/04/23 00:27:26;;;;;;;;;;;;;;;;;;1036030;28;3169;-53
2023/04/23 00:27:57;;;;;;;;;;;;;;;;;;1033982;28;4085;-53
2023/04/23 00:28:27;;;;;;;;;;;;;;;;;;1034557;28;2872;-53
2023/04/23 00:28:57;;;;;;;;;;;;;;;;;;1033736;28;4094;-54
2023/04/23 00:29:28;;;;;;;;;;;;;;;;;;1034988;28;2812;-49
2023/04/23 00:29:58;;;;;;;;;;;;;;;;;;1035083;28;3994;-52
2023/04/23 00:30:28;;;;;;;;;;;;;;;;;;1034163;28;2039;-55
2023/04/23 00:30:58;;;;;;;;;;;;;;;;;;1034873;28;4077;-52
2023/04/23 00:31:29;;;;;;;;;;;;;;;;;;1033860;28;3194;-51
2023/04/23 00:31:59;;;;;;;;;;;;;;;;;;1034653;28;3946;-49
2023/04/23 00:32:30;;;;;;;;;;;;;;;;;;1033928;28;3134;-52
2023/04/23 00:33:00;;;;;;;;;;;;;;;;;;1034038;28;3761;-52
2023/04/23 00:33:31;;;;;;;;;;;;;;;;;;1034820;28;1725;-52
2023/04/23 00:34:01;;;;;;;;;;;;;;;;;;1034019;28;4989;-51
2023/04/23 00:34:31;;;;;;;;;;;;;;;;;;1033910;28;2921;-53
2023/04/23 00:35:02;;;;;;;;;;;;;;;;;;1034794;28;4040;-53
2023/04/23 00:35:32;;;;;;;;;;;;;;;;;;1034820;28;1636;-49
2023/04/23 00:36:02;;;;;;;;;;;;;;;;;;1030021;28;4009;-52
2023/04/23 00:36:33;;;;;;;;;;;;;;;;;;1030342;28;2766;-54
2023/04/23 00:37:05;;;;;;;;;;;;;;;;;;1029300;28;4202;-53
2023/04/23 00:37:35;;;;;;;;;;;;;;;;;;1030133;28;4825;-50
2023/04/23 00:38:06;;;;;;;;;;;;;;;;;;1034708;28;3060;-52
2023/04/23 00:38:36;;;;;;;;;;;;;;;;;;1034417;28;3912;-55
2023/04/23 00:39:06;;;;;;;;;;;;;;;;;;1033732;28;2989;-55
2023/04/23 00:39:37;;;;;;;;;;;;;;;;;;1034462;28;3968;-48
2023/04/23 00:40:08;;;;;;;;;;;;;;;;;;1035706;28;3101;-48
2023/04/23 00:40:38;;;;;;;;;;;;;;;;;;1033584;28;4181;-51
2023/04/23 00:41:09;;;;;;;;;;;;;;;;;;1035218;28;4323;-54
2023/04/23 00:41:40;;;;;;;;;;;;;;;;;;1032391;28;3878;-53
2023/04/23 00:42:11;;;;;;;;;;;;;;;;;;1035140;28;2870;-53
2023/04/23 00:42:43;;;;;;;;;;;;;;;;;;1034532;28;4065;-52
2023/04/23 00:43:14;;;;;;;;;;;;;;;;;;1035194;28;2057;-52
2023/04/23 00:43:44;;;;;;;;;;;;;;;;;;1034280;28;3928;-52
2023/04/23 00:44:15;;;;;;;;;;;;;;;;;;1033809;28;2114;-54
2023/04/23 00:44:45;;;;;;;;;;;;;;;;;;1034759;28;3979;-54
2023/04/23 00:45:16;;;;;;;;;;;;;;;;;;1034856;28;2647;-58
2023/04/23 00:45:47;;;;;;;;;;;;;;;;;;1034140;28;4034;-54
2023/04/23 00:46:17;;;;;;;;;;;;;;;;;;1034953;28;2823;-52
2023/04/23 00:46:48;;;;;;;;;;;;;;;;;;1034370;28;3947;-55
2023/04/23 00:47:19;;;;;;;;;;;;;;;;;;1033472;28;2977;-50
2023/04/23 00:47:49;;;;;;;;;;;;;;;;;;1034079;28;3914;-50
2023/04/23 00:48:21;;;;;;;;;;;;;;;;;;1033912;28;3001;-55
2023/04/23 00:48:52;;;;;;;;;;;;;;;;;;1034309;28;4285;-50
2023/04/23 00:49:22;;;;;;;;;;;;;;;;;;1033664;28;2858;-54
2023/04/23 00:49:54;;;;;;;;;;;;;;;;;;1033747;28;3901;-56
2023/04/23 00:50:24;;;;;;;;;;;;;;;;;;1034186;28;3066;-53
2023/04/23 00:51:15;;;;;;;;;;;;;;;;;;1034545;28;3877;-51
2023/04/23 00:51:45;;;;;;;;;;;;;;;;;;1033685;28;4087;-55
2023/04/23 00:52:15;;;;;;;;;;;;;;;;;;1035769;28;3098;-54
2023/04/23 00:52:46;;;;;;;;;;;;;;;;;;1034384;28;4144;-49
2023/04/23 00:53:16;;;;;;;;;;;;;;;;;;1032628;28;2984;-52
2023/04/23 00:53:46;;;;;;;;;;;;;;;;;;1035390;28;4063;-52
2023/04/23 00:54:17;;;;;;;;;;;;;;;;;;1034803;28;1587;-53
2023/04/23 00:54:47;;;;;;;;;;;;;;;;;;1034780;28;4066;-56
2023/04/23 00:55:19;;;;;;;;;;;;;;;;;;1033670;28;2945;-51
2023/04/23 00:55:50;;;;;;;;;;;;;;;;;;1033824;28;4036;-56
2023/04/23 00:56:21;;;;;;;;;;;;;;;;;;1034557;28;1806;-55
2023/04/23 00:56:52;;;;;;;;;;;;;;;;;;1032757;28;4053;-54
2023/04/23 00:57:23;;;;;;;;;;;;;;;;;;1033701;28;3981;-54
2023/04/23 00:57:53;;;;;;;;;;;;;;;;;;1033910;28;3903;-54
2023/04/23 00:58:24;;;;;;;;;;;;;;;;;;1033929;28;3055;-53
2023/04/23 00:58:55;;;;;;;;;;;;;;;;;;1033388;28;3924;-49
2023/04/23 00:59:25;;;;;;;;;;;;;;;;;;1029453;28;2857;-54
2023/04/23 00:59:57;;;;;;;;;;;;;;;;;;1029926;28;3777;-52
2023/04/23 01:00:28;;;;;;;;;;;;;;;;;;1026640;28;2979;-54
2023/04/23 01:00:58;;;;;;;;;;;;;;;;;;1028408;28;3756;-52
2023/04/23 01:01:29;;;;;;;;;;;;;;;;;;1033139;28;3022;-53
2023/04/23 01:01:59;;;;;;;;;;;;;;;;;;1034137;28;3791;-57
2023/04/23 01:02:29;;;;;;;;;;;;;;;;;;1034648;28;2954;-58
2023/04/23 01:03:00;;;;;;;;;;;;;;;;;;1034907;28;3799;-54
2023/04/23 01:03:31;;;;;;;;;;;;;;;;;;1033112;28;2895;-54
2023/04/23 01:04:01;;;;;;;;;;;;;;;;;;1033083;28;4047;-53
2023/04/23 01:04:32;;;;;;;;;;;;;;;;;;1035513;28;1632;-52
2023/04/23 01:05:03;;;;;;;;;;;;;;;;;;1034277;28;3856;-51
2023/04/23 01:05:34;;;;;;;;;;;;;;;;;;1033509;28;2932;-50
2023/04/23 01:06:05;;;;;;;;;;;;;;;;;;1033786;28;3934;-49
2023/04/23 01:06:35;;;;;;;;;;;;;;;;;;1034729;28;3893;-53
2023/04/23 01:07:06;;;;;;;;;;;;;;;;;;1034109;28;2899;-54
2023/04/23 01:07:37;;;;;;;;;;;;;;;;;;1034313;28;3936;-49
2023/04/23 01:08:07;;;;;;;;;;;;;;;;;;1034706;28;3311;-51
2023/04/23 01:08:39;;;;;;;;;;;;;;;;;;1034228;28;3909;-51
2023/04/23 01:09:09;;;;;;;;;;;;;;;;;;1034760;28;1863;-58
2023/04/23 01:09:40;;;;;;;;;;;;;;;;;;1034279;28;4083;-51
2023/04/23 01:10:11;;;;;;;;;;;;;;;;;;1032416;28;3241;-53
2023/04/23 01:10:42;;;;;;;;;;;;;;;;;;1033247;28;4061;-51
2023/04/23 01:11:13;;;;;;;;;;;;;;;;;;1034061;28;2033;-50
2023/04/23 01:11:43;;;;;;;;;;;;;;;;;;1034489;28;4295;-52
2023/04/23 01:12:14;;;;;;;;;;;;;;;;;;1034425;28;2601;-53
2023/04/23 01:12:44;;;;;;;;;;;;;;;;;;1033055;28;3866;-55
2023/04/23 01:13:15;;;;;;;;;;;;;;;;;;1034431;28;2815;-56
2023/04/23 01:13:45;;;;;;;;;;;;;;;;;;1033479;28;4104;-53
2023/04/23 01:14:16;;;;;;;;;;;;;;;;;;1034617;28;1706;-50
2023/04/23 01:14:46;;;;;;;;;;;;;;;;;;1034788;28;3804;-52
2023/04/23 01:15:16;;;;;;;;;;;;;;;;;;1029871;28;3067;-53
2023/04/23 01:15:47;;;;;;;;;;;;;;;;;;1029503;28;4041;-55
2023/04/23 01:16:17;;;;;;;;;;;;;;;;;;1030980;28;1809;-50
2023/04/23 01:16:48;;;;;;;;;;;;;;;;;;1030244;28;3930;-53
2023/04/23 01:17:18;;;;;;;;;;;;;;;;;;1030221;28;1877;-47
2023/04/23 01:17:48;;;;;;;;;;;;;;;;;;1028583;28;3872;-53
2023/04/23 01:18:19;;;;;;;;;;;;;;;;;;1030972;28;3087;-51
2023/04/23 01:18:49;;;;;;;;;;;;;;;;;;1029832;28;3897;-53
2023/04/23 01:19:19;;;;;;;;;;;;;;;;;;1034300;28;2945;-55
2023/04/23 01:19:49;;;;;;;;;;;;;;;;;;1034231;28;4057;-48
2023/04/23 01:20:20;;;;;;;;;;;;;;;;;;1033489;28;2838;-47
2023/04/23 01:20:50;;;;;;;;;;;;;;;;;;1033686;28;4035;-54
2023/04/23 01:21:21;;;;;;;;;;;;;;;;;;1033756;28;2891;-53
2023/04/23 01:21:52;;;;;;;;;;;;;;;;;;1033239;28;3770;-50
2023/04/23 01:22:22;;;;;;;;;;;;;;;;;;1034496;28;3379;-55
2023/04/23 01:22:53;;;;;;;;;;;;;;;;;;1035537;28;3810;-53
2023/04/23 01:23:24;;;;;;;;;;;;;;;;;;1032999;28;2954;-50
2023/04/23 01:23:54;;;;;;;;;;;;;;;;;;1033293;28;4977;-50
2023/04/23 01:24:25;;;;;;;;;;;;;;;;;;1034262;28;2964;-54
2023/04/23 01:24:55;;;;;;;;;;;;;;;;;;1035531;28;3865;-55
2023/04/23 01:25:26;;;;;;;;;;;;;;;;;;1033458;28;3048;-55
2023/04/23 01:25:57;;;;;;;;;;;;;;;;;;1033565;28;3950;-55
2023/04/23 01:26:28;;;;;;;;;;;;;;;;;;1034623;28;2894;-53
2023/04/23 01:26:58;;;;;;;;;;;;;;;;;;1033960;28;3757;-53
2023/04/23 01:27:28;;;;;;;;;;;;;;;;;;1034424;28;4284;-50
2023/04/23 01:27:58;;;;;;;;;;;;;;;;;;1033566;28;3810;-47
2023/04/23 01:28:29;;;;;;;;;;;;;;;;;;1033283;28;3443;-56
2023/04/23 01:29:00;;;;;;;;;;;;;;;;;;1033640;28;4048;-54
2023/04/23 01:29:31;;;;;;;;;;;;;;;;;;1034726;28;1927;-52
2023/04/23 01:30:03;;;;;;;;;;;;;;;;;;1032400;28;3996;-52
2023/04/23 01:30:34;;;;;;;;;;;;;;;;;;1033416;28;3054;-53
2023/04/23 01:31:04;;;;;;;;;;;;;;;;;;1034916;28;3725;-52
2023/04/23 01:31:35;;;;;;;;;;;;;;;;;;1033285;28;4124;-52
2023/04/23 01:32:06;;;;;;;;;;;;;;;;;;1033811;28;3040;-47
2023/04/23 01:32:37;;;;;;;;;;;;;;;;;;1033364;28;4073;-55
2023/04/23 01:33:08;;;;;;;;;;;;;;;;;;1034279;28;3317;-52
2023/04/23 01:33:39;;;;;;;;;;;;;;;;;;1032855;28;3883;-53
2023/04/23 01:34:10;;;;;;;;;;;;;;;;;;1033692;28;2969;-54
2023/04/23 01:34:41;;;;;;;;;;;;;;;;;;1033580;28;4080;-53
2023/04/23 01:35:12;;;;;;;;;;;;;;;;;;1036273;28;2970;-54
2023/04/23 01:35:42;;;;;;;;;;;;;;;;;;1033726;28;4040;-50
2023/04/23 01:36:13;;;;;;;;;;;;;;;;;;1030197;28;1829;-50
2023/04/23 01:36:43;;;;;;;;;;;;;;;;;;1030460;28;4073;-50
2023/04/23 01:37:14;;;;;;;;;;;;;;;;;;1029483;28;3013;-54
2023/04/23 01:37:45;;;;;;;;;;;;;;;;;;1031540;28;4250;-54
2023/04/23 01:38:16;;;;;;;;;;;;;;;;;;1032734;28;2816;-54
2023/04/23 01:38:46;;;;;;;;;;;;;;;;;;1033869;28;4081;-48
2023/04/23 01:39:17;;;;;;;;;;;;;;;;;;1034410;28;2879;-54
2023/04/23 01:39:47;;;;;;;;;;;;;;;;;;1034614;28;4185;-52
2023/04/23 01:40:18;;;;;;;;;;;;;;;;;;1033131;28;3255;-51
2023/04/23 01:40:48;;;;;;;;;;;;;;;;;;1033769;28;3774;-55
2023/04/23 01:41:19;;;;;;;;;;;;;;;;;;1033984;28;2962;-52
2023/04/23 01:41:49;;;;;;;;;;;;;;;;;;1034142;28;4059;-46
2023/04/23 01:42:20;;;;;;;;;;;;;;;;;;1035242;28;2938;-53
2023/04/23 01:42:51;;;;;;;;;;;;;;;;;;1034008;28;4172;-53
2023/04/23 01:43:21;;;;;;;;;;;;;;;;;;1032803;28;2990;-51
2023/04/23 01:43:52;;;;;;;;;;;;;;;;;;1034183;28;3925;-51
2023/04/23 01:44:22;;;;;;;;;;;;;;;;;;1034092;28;2831;-54
2023/04/23 01:44:53;;;;;;;;;;;;;;;;;;1034152;28;3913;-54
2023/04/23 01:45:23;;;;;;;;;;;;;;;;;;1033443;28;2926;-56
2023/04/23 01:45:54;;;;;;;;;;;;;;;;;;1033383;28;4022;-54
2023/04/23 01:46:24;;;;;;;;;;;;;;;;;;1034205;28;2020;-53
2023/04/23 01:46:56;;;;;;;;;;;;;;;;;;1034253;28;3802;-53
2023/04/23 01:47:26;;;;;;;;;;;;;;;;;;1034872;28;1735;-52
2023/04/23 01:47:58;;;;;;;;;;;;;;;;;;1033577;28;4114;-54
2023/04/23 01:48:28;;;;;;;;;;;;;;;;;;1034066;28;3254;-54
2023/04/23 01:48:58;;;;;;;;;;;;;;;;;;1033745;28;4085;-51
2023/04/23 01:49:29;;;;;;;;;;;;;;;;;;1032752;28;3162;-49
2023/04/23 01:49:59;;;;;;;;;;;;;;;;;;1033782;28;3829;-51
2023/04/23 01:50:30;;;;;;;;;;;;;;;;;;1034384;28;2937;-56
2023/04/23 01:51:00;;;;;;;;;;;;;;;;;;1032688;28;4155;-54
2023/04/23 01:51:31;;;;;;;;;;;;;;;;;;1034124;28;3068;-52
2023/04/23 01:52:01;;;;;;;;;;;;;;;;;;1034159;28;3934;-50
2023/04/23 01:52:31;;;;;;;;;;;;;;;;;;1034345;28;1684;-48
2023/04/23 01:53:01;;;;;;;;;;;;;;;;;;1034454;28;3854;-54
2023/04/23 01:53:32;;;;;;;;;;;;;;;;;;1033307;28;3388;-53
2023/04/23 01:54:02;;;;;;;;;;;;;;;;;;1034253;28;4090;-54
2023/04/23 01:54:32;;;;;;;;;;;;;;;;;;1033960;28;2783;-49
2023/04/23 01:55:03;;;;;;;;;;;;;;;;;;1033627;28;4148;-50
2023/04/23 01:55:33;;;;;;;;;;;;;;;;;;1032667;28;3258;-55
2023/04/23 01:56:04;;;;;;;;;;;;;;;;;;1034595;28;3882;-56
2023/04/23 01:56:35;;;;;;;;;;;;;;;;;;1033655;28;2927;-46
2023/04/23 01:57:05;;;;;;;;;;;;;;;;;;1034554;28;3812;-54
2023/04/23 01:57:36;;;;;;;;;;;;;;;;;;1033840;28;4161;-53
2023/04/23 01:58:06;;;;;;;;;;;;;;;;;;1034653;28;1730;-53
2023/04/23 01:58:36;;;;;;;;;;;;;;;;;;1033377;28;4504;-49
2023/04/23 01:59:07;;;;;;;;;;;;;;;;;;1033915;28;3007;-55
2023/04/23 01:59:38;;;;;;;;;;;;;;;;;;1033460;28;4037;-50
2023/04/23 02:00:10;;;;;;;;;;;;;;;;;;1034845;28;3279;-50
2023/04/23 02:00:40;;;;;;;;;;;;;;;;;;1029888;28;4147;-56
2023/04/23 02:01:11;;;;;;;;;;;;;;;;;;1030457;28;2324;-52
2023/04/23 02:01:45;;;;;;;;;;;;;;;;;;1030169;28;4163;-49
2023/04/23 02:02:15;;;;;;;;;;;;;;;;;;1029738;28;1735;-49
2023/04/23 02:02:46;;;;;;;;;;;;;;;;;;1034696;28;4055;-54
2023/04/23 02:03:16;;;;;;;;;;;;;;;;;;1034354;28;1949;-53
2023/04/23 02:03:48;;;;;;;;;;;;;;;;;;1034505;28;3998;-52
2023/04/23 02:04:18;;;;;;;;;;;;;;;;;;1033604;28;2887;-55
2023/04/23 02:04:49;;;;;;;;;;;;;;;;;;1034643;28;3759;-50
2023/04/23 02:05:20;;;;;;;;;;;;;;;;;;1033983;28;2966;-54
2023/04/23 02:05:52;;;;;;;;;;;;;;;;;;1032238;28;3864;-52
2023/04/23 02:06:22;;;;;;;;;;;;;;;;;;1030464;28;3186;-54
2023/04/23 02:06:53;;;;;;;;;;;;;;;;;;1030049;28;4055;-53
2023/04/23 02:07:23;;;;;;;;;;;;;;;;;;1029980;28;2816;-54
2023/04/23 02:07:54;;;;;;;;;;;;;;;;;;1030496;28;4073;-52
2023/04/23 02:08:25;;;;;;;;;;;;;;;;;;1034637;28;2397;-49
2023/04/23 02:08:56;;;;;;;;;;;;;;;;;;1034867;28;4011;-57
2023/04/23 02:09:26;;;;;;;;;;;;;;;;;;1034097;28;1834;-54
2023/04/23 02:09:56;;;;;;;;;;;;;;;;;;1034716;28;4113;-53
2023/04/23 02:10:28;;;;;;;;;;;;;;;;;;1034531;28;1959;-57
2023/04/23 02:10:58;;;;;;;;;;;;;;;;;;1034333;28;4030;-51
2023/04/23 02:11:28;;;;;;;;;;;;;;;;;;1034254;28;2863;-53
2023/04/23 02:12:00;;;;;;;;;;;;;;;;;;1034548;28;4020;-54
2023/04/23 02:12:30;;;;;;;;;;;;;;;;;;1034537;28;2245;-51
2023/04/23 02:13:01;;;;;;;;;;;;;;;;;;1034723;28;3975;-50
2023/04/23 02:13:31;;;;;;;;;;;;;;;;;;1034146;28;1667;-50
2023/04/23 02:14:03;;;;;;;;;;;;;;;;;;1034563;28;3925;-53
2023/04/23 02:14:33;;;;;;;;;;;;;;;;;;1034341;28;1771;-53
2023/04/23 02:15:05;;;;;;;;;;;;;;;;;;1034571;28;4037;-54
2023/04/23 02:15:37;;;;;;;;;;;;;;;;;;1033699;28;3984;-52
2023/04/23 02:16:07;;;;;;;;;;;;;;;;;;1034139;28;2420;-48
2023/04/23 02:16:38;;;;;;;;;;;;;;;;;;1034618;28;4043;-50
2023/04/23 02:17:08;;;;;;;;;;;;;;;;;;1034192;28;1693;-52
2023/04/23 02:17:38;;;;;;;;;;;;;;;;;;1034681;28;4065;-55
2023/04/23 02:18:09;;;;;;;;;;;;;;;;;;1032730;28;2769;-56
2023/04/23 02:18:40;;;;;;;;;;;;;;;;;;1033962;28;3961;-47
2023/04/23 02:19:11;;;;;;;;;;;;;;;;;;1034587;28;2150;-55
2023/04/23 02:19:41;;;;;;;;;;;;;;;;;;1034629;28;4084;-52
2023/04/23 02:20:11;;;;;;;;;;;;;;;;;;1034042;28;1932;-53
2023/04/23 02:20:42;;;;;;;;;;;;;;;;;;1034091;28;3831;-51
2023/04/23 02:21:13;;;;;;;;;;;;;;;;;;1033861;28;2861;-56
2023/04/23 02:21:43;;;;;;;;;;;;;;;;;;1033997;28;3912;-50
2023/04/23 02:22:14;;;;;;;;;;;;;;;;;;1032521;28;3145;-52
2023/04/23 02:22:45;;;;;;;;;;;;;;;;;;1035188;28;4040;-50
2023/04/23 02:23:15;;;;;;;;;;;;;;;;;;1034505;28;1927;-52
2023/04/23 02:23:46;;;;;;;;;;;;;;;;;;1034393;28;4056;-50
2023/04/23 02:24:16;;;;;;;;;;;;;;;;;;1035088;28;1808;-53
2023/04/23 02:24:47;;;;;;;;;;;;;;;;;;1033502;28;3813;-51
2023/04/23 02:25:17;;;;;;;;;;;;;;;;;;1035268;28;1697;-50
2023/04/23 02:25:47;;;;;;;;;;;;;;;;;;1032261;28;4104;-50
2023/04/23 02:26:18;;;;;;;;;;;;;;;;;;1035183;28;2983;-52
2023/04/23 02:26:48;;;;;;;;;;;;;;;;;;1034067;28;3894;-50
2023/04/23 02:27:19;;;;;;;;;;;;;;;;;;1035123;28;1439;-54
2023/04/23 02:27:49;;;;;;;;;;;;;;;;;;1033148;28;3906;-53
2023/04/23 02:28:19;;;;;;;;;;;;;;;;;;1035797;28;1839;-50
2023/04/23 02:28:50;;;;;;;;;;;;;;;;;;1033718;28;4094;-52
2023/04/23 02:29:20;;;;;;;;;;;;;;;;;;1035140;28;1789;-51
2023/04/23 02:29:50;;;;;;;;;;;;;;;;;;1032692;28;3989;-58
2023/04/23 02:30:21;;;;;;;;;;;;;;;;;;1033299;28;3020;-49
2023/04/23 02:30:52;;;;;;;;;;;;;;;;;;1033752;28;3928;-52
2023/04/23 02:31:22;;;;;;;;;;;;;;;;;;1035189;28;1762;-51
2023/04/23 02:31:52;;;;;;;;;;;;;;;;;;1033684;28;4012;-49
2023/04/23 02:32:23;;;;;;;;;;;;;;;;;;1034672;28;1842;-55
2023/04/23 02:32:53;;;;;;;;;;;;;;;;;;1033277;28;4040;-53
2023/04/23 02:33:24;;;;;;;;;;;;;;;;;;1035163;28;1614;-52
2023/04/23 02:33:55;;;;;;;;;;;;;;;;;;1034536;28;3943;-53
2023/04/23 02:34:25;;;;;;;;;;;;;;;;;;1034246;28;2328;-50
2023/04/23 02:34:56;;;;;;;;;;;;;;;;;;1034504;28;5293;-51
2023/04/23 02:35:26;;;;;;;;;;;;;;;;;;1033339;28;2583;-55
2023/04/23 02:35:57;;;;;;;;;;;;;;;;;;1033602;28;4088;-55
2023/04/23 02:36:29;;;;;;;;;;;;;;;;;;1035487;28;1668;-51
2023/04/23 02:37:00;;;;;;;;;;;;;;;;;;1034087;28;3990;-53
2023/04/23 02:37:31;;;;;;;;;;;;;;;;;;1034415;28;1888;-55
2023/04/23 02:38:01;;;;;;;;;;;;;;;;;;1034436;28;3811;-53
2023/04/23 02:38:31;;;;;;;;;;;;;;;;;;1033447;28;2919;-51
2023/04/23 02:39:02;;;;;;;;;;;;;;;;;;1035190;28;3740;-54
2023/04/23 02:39:32;;;;;;;;;;;;;;;;;;1033949;28;2988;-49
2023/04/23 02:40:04;;;;;;;;;;;;;;;;;;1034165;28;4077;-51
2023/04/23 02:40:35;;;;;;;;;;;;;;;;;;1033913;28;3828;-50
2023/04/23 02:41:05;;;;;;;;;;;;;;;;;;1034596;28;2758;-52
2023/04/23 02:41:36;;;;;;;;;;;;;;;;;;1032902;28;3978;-50
2023/04/23 02:42:06;;;;;;;;;;;;;;;;;;1034526;28;2254;-56
2023/04/23 02:42:36;;;;;;;;;;;;;;;;;;1034863;28;4110;-53
2023/04/23 02:43:06;;;;;;;;;;;;;;;;;;1034444;28;1874;-54
2023/04/23 02:43:37;;;;;;;;;;;;;;;;;;1033054;28;3906;-55
2023/04/23 02:44:07;;;;;;;;;;;;;;;;;;1033199;28;3005;-50
2023/04/23 02:44:37;;;;;;;;;;;;;;;;;;1032645;28;4004;-54
2023/04/23 02:45:08;;;;;;;;;;;;;;;;;;1033152;28;3067;-56
2023/04/23 02:45:38;;;;;;;;;;;;;;;;;;1033180;28;3817;-54
2023/04/23 02:46:08;;;;;;;;;;;;;;;;;;1033555;28;1905;-51
2023/04/23 02:46:39;;;;;;;;;;;;;;;;;;1034387;28;4416;-55
2023/04/23 02:47:09;;;;;;;;;;;;;;;;;;1032902;28;3631;-54
2023/04/23 02:47:39;;;;;;;;;;;;;;;;;;1034030;28;4085;-53
2023/04/23 02:48:11;;;;;;;;;;;;;;;;;;1034057;28;1828;-50
2023/04/23 02:48:41;;;;;;;;;;;;;;;;;;1033594;28;3871;-50
2023/04/23 02:49:13;;;;;;;;;;;;;;;;;;1034155;28;1740;-55
2023/04/23 02:49:43;;;;;;;;;;;;;;;;;;1034239;28;3988;-55
2023/04/23 02:50:15;;;;;;;;;;;;;;;;;;1032250;28;2998;-51
2023/04/23 02:50:45;;;;;;;;;;;;;;;;;;1033071;28;4086;-54
2023/04/23 02:51:16;;;;;;;;;;;;;;;;;;1028850;28;3012;-50
2023/04/23 02:51:46;;;;;;;;;;;;;;;;;;1029295;28;4046;-50
2023/04/23 02:52:16;;;;;;;;;;;;;;;;;;1030513;28;1632;-54
2023/04/23 02:52:48;;;;;;;;;;;;;;;;;;1023937;28;4401;-50
2023/04/23 02:53:18;;;;;;;;;;;;;;;;;;1028872;28;3096;-51
2023/04/23 02:53:49;;;;;;;;;;;;;;;;;;1029746;28;3872;-49
2023/04/23 02:54:19;;;;;;;;;;;;;;;;;;1030612;28;2002;-48
2023/04/23 02:54:49;;;;;;;;;;;;;;;;;;1031076;28;3777;-51
2023/04/23 02:55:20;;;;;;;;;;;;;;;;;;1034386;28;1709;-55
2023/04/23 02:55:50;;;;;;;;;;;;;;;;;;1033590;28;4433;-50
2023/04/23 02:56:20;;;;;;;;;;;;;;;;;;1033915;28;2887;-50
2023/04/23 02:56:51;;;;;;;;;;;;;;;;;;1033876;28;3871;-52
2023/04/23 02:57:21;;;;;;;;;;;;;;;;;;1034391;28;2779;-52
2023/04/23 02:57:52;;;;;;;;;;;;;;;;;;1033102;28;4004;-52
2023/04/23 02:58:22;;;;;;;;;;;;;;;;;;1033962;28;2471;-54
2023/04/23 02:58:52;;;;;;;;;;;;;;;;;;1033639;28;3899;-50
2023/04/23 02:59:23;;;;;;;;;;;;;;;;;;1033470;28;2911;-48
2023/04/23 02:59:53;;;;;;;;;;;;;;;;;;1034451;28;3947;-53
2023/04/23 03:00:24;;;;;;;;;;;;;;;;;;1032445;28;2877;-55
2023/04/23 03:00:55;;;;;;;;;;;;;;;;;;1034012;28;3863;-55
2023/04/23 03:01:26;;;;;;;;;;;;;;;;;;1034299;28;2968;-53
2023/04/23 03:01:56;;;;;;;;;;;;;;;;;;1028988;28;4065;-54
2023/04/23 03:02:26;;;;;;;;;;;;;;;;;;1029656;28;1881;-50
2023/04/23 03:02:56;;;;;;;;;;;;;;;;;;1030134;28;3818;-50
2023/04/23 03:03:30;;;;;;;;;;;;;;;;;;1028358;28;3174;-49
2023/04/23 03:04:00;;;;;;;;;;;;;;;;;;1032805;28;4322;-49
2023/04/23 03:04:31;;;;;;;;;;;;;;;;;;1033033;28;2761;-53
2023/04/23 03:05:01;;;;;;;;;;;;;;;;;;1032656;28;3798;-54
2023/04/23 03:05:31;;;;;;;;;;;;;;;;;;1033678;28;3212;-50
2023/04/23 03:06:02;;;;;;;;;;;;;;;;;;1032696;28;4947;-49
2023/04/23 03:06:34;;;;;;;;;;;;;;;;;;1032917;28;2976;-50
2023/04/23 03:07:04;;;;;;;;;;;;;;;;;;1033760;28;3830;-52
2023/04/23 03:07:35;;;;;;;;;;;;;;;;;;1033562;28;4231;-47
2023/04/23 03:08:06;;;;;;;;;;;;;;;;;;1034056;28;3013;-53
2023/04/23 03:08:36;;;;;;;;;;;;;;;;;;1031938;28;4018;-59
2023/04/23 03:09:07;;;;;;;;;;;;;;;;;;1034689;28;1679;-52
2023/04/23 03:09:38;;;;;;;;;;;;;;;;;;1032390;28;4093;-50
2023/04/23 03:10:08;;;;;;;;;;;;;;;;;;1034907;28;2884;-51
2023/04/23 03:10:38;;;;;;;;;;;;;;;;;;1033756;28;4159;-51
2023/04/23 03:11:09;;;;;;;;;;;;;;;;;;1034058;28;2680;-53
2023/04/23 03:11:39;;;;;;;;;;;;;;;;;;1033939;28;8083;-48
2023/04/23 03:12:10;;;;;;;;;;;;;;;;;;1032932;28;4242;-53
2023/04/23 03:12:40;;;;;;;;;;;;;;;;;;1035818;28;4020;-50
2023/04/23 03:13:10;;;;;;;;;;;;;;;;;;1034041;28;1887;-52
2023/04/23 03:13:41;;;;;;;;;;;;;;;;;;1033862;28;4021;-56
2023/04/23 03:14:11;;;;;;;;;;;;;;;;;;1033455;28;2866;-53
2023/04/23 03:14:42;;;;;;;;;;;;;;;;;;1033555;28;4475;-55
2023/04/23 03:15:12;;;;;;;;;;;;;;;;;;1033957;28;2833;-52
2023/04/23 03:15:42;;;;;;;;;;;;;;;;;;1032727;28;4007;-54
2023/04/23 03:16:13;;;;;;;;;;;;;;;;;;1032428;28;2955;-53
2023/04/23 03:16:43;;;;;;;;;;;;;;;;;;1033538;28;4041;-54
2023/04/23 03:17:13;;;;;;;;;;;;;;;;;;1034639;28;1919;-54
2023/04/23 03:17:44;;;;;;;;;;;;;;;;;;1029678;28;3792;-49
2023/04/23 03:18:14;;;;;;;;;;;;;;;;;;1029684;28;2300;-57
2023/04/23 03:18:44;;;;;;;;;;;;;;;;;;1029376;28;3882;-51
2023/04/23 03:19:15;;;;;;;;;;;;;;;;;;1030490;28;1917;-54
2023/04/23 03:19:45;;;;;;;;;;;;;;;;;;1032886;28;4098;-53
2023/04/23 03:20:15;;;;;;;;;;;;;;;;;;1033296;28;3240;-51
2023/04/23 03:20:46;;;;;;;;;;;;;;;;;;1033892;28;3951;-50
2023/04/23 03:21:16;;;;;;;;;;;;;;;;;;1033398;28;3140;-53
2023/04/23 03:21:47;;;;;;;;;;;;;;;;;;1033121;28;3884;-52
2023/04/23 03:22:17;;;;;;;;;;;;;;;;;;1034810;28;2956;-54
2023/04/23 03:22:47;;;;;;;;;;;;;;;;;;1033500;28;4245;-54
2023/04/23 03:23:17;;;;;;;;;;;;;;;;;;1034467;28;1700;-52
2023/04/23 03:23:48;;;;;;;;;;;;;;;;;;1033175;28;5197;-54
2023/04/23 03:24:18;;;;;;;;;;;;;;;;;;1033454;28;2834;-49
2023/04/23 03:24:48;;;;;;;;;;;;;;;;;;1031477;28;3894;-55
2023/04/23 03:25:21;;;;;;;;;;;;;;;;;;1033019;28;2963;-57
2023/04/23 03:25:51;;;;;;;;;;;;;;;;;;1033334;28;3920;-52
2023/04/23 03:26:21;;;;;;;;;;;;;;;;;;1034713;28;2979;-54
2023/04/23 03:26:52;;;;;;;;;;;;;;;;;;1034169;28;4206;-53
2023/04/23 03:27:22;;;;;;;;;;;;;;;;;;1034444;28;3015;-51
2023/04/23 03:27:52;;;;;;;;;;;;;;;;;;1029844;28;3871;-54
2023/04/23 03:28:23;;;;;;;;;;;;;;;;;;1030123;28;2956;-52
2023/04/23 03:28:53;;;;;;;;;;;;;;;;;;1028829;28;3979;-50
2023/04/23 03:29:23;;;;;;;;;;;;;;;;;;1029045;28;3515;-49
2023/04/23 03:29:53;;;;;;;;;;;;;;;;;;1033372;28;3902;-54
2023/04/23 03:30:24;;;;;;;;;;;;;;;;;;1033104;28;3336;-53
2023/04/23 03:30:54;;;;;;;;;;;;;;;;;;1033771;28;3876;-52
2023/04/23 03:31:24;;;;;;;;;;;;;;;;;;1032702;28;3264;-49
2023/04/23 03:31:55;;;;;;;;;;;;;;;;;;1033464;28;3915;-54
2023/04/23 03:32:25;;;;;;;;;;;;;;;;;;1034219;28;2934;-55
2023/04/23 03:32:56;;;;;;;;;;;;;;;;;;1033910;28;3884;-51
2023/04/23 03:33:26;;;;;;;;;;;;;;;;;;1034289;28;2913;-54